createdAt,value
2023-04-01T00:02:10.962Z,9.5
2023-04-01T00:17:34.262Z,9.5
2023-04-01T00:32:57.554Z,9.5
2023-04-01T00:48:20.855Z,9.5
2023-04-01T01:03:44.165Z,9.4
2023-04-01T01:19:07.459Z,9.3
2023-04-01T01:34:30.772Z,9.3
2023-04-01T01:49:54.065Z,9.3
2023-04-01T02:05:16.386Z,9.3
2023-04-01T02:20:39.683Z,9.3
2023-04-01T02:36:02.974Z,9.3
2023-04-01T02:51:26.291Z,9.5
2023-04-01T03:06:49.579Z,9.4
2023-04-01T03:22:12.893Z,9.4
2023-04-01T03:37:36.194Z,9.7
2023-04-01T03:52:59.496Z,9.4
2023-04-01T04:08:22.802Z,9.5
2023-04-01T04:23:46.042Z,9.3
2023-04-01T04:39:09.305Z,9.2
2023-04-01T04:54:32.568Z,9.4
2023-04-01T05:09:55.833Z,9.3
2023-04-01T05:25:18.107Z,9.1
2023-04-01T05:40:41.368Z,9.3
2023-04-01T05:56:04.625Z,9.5
2023-04-01T06:11:27.870Z,9.8
2023-04-01T06:26:51.135Z,10
2023-04-01T06:42:14.404Z,10.3
2023-04-01T06:57:37.658Z,10.5
2023-04-01T07:13:00.908Z,10.8
2023-04-01T07:28:24.174Z,10.9
2023-04-01T07:43:47.423Z,11.1
2023-04-01T07:59:10.693Z,11.4
2023-04-01T08:14:33.950Z,11.3
2023-04-01T08:29:57.213Z,11.4
2023-04-01T08:45:19.483Z,11.6
2023-04-01T09:00:42.747Z,11.5
2023-04-01T09:16:06.001Z,11.6
2023-04-01T09:17:29.412Z,11.7
2023-04-01T09:18:52.815Z,11.7
2023-04-01T09:20:16.235Z,11.7
2023-04-01T09:21:39.639Z,11.8
2023-04-01T09:23:03.046Z,11.7
2023-04-01T09:24:26.462Z,11.7
2023-04-01T09:25:49.869Z,11.9
2023-04-01T09:27:13.284Z,11.9
2023-04-01T09:28:36.698Z,12
2023-04-01T09:30:00.102Z,11.9
2023-04-01T09:31:22.518Z,12
2023-04-01T09:32:45.928Z,12
2023-04-01T09:34:09.338Z,12
2023-04-01T09:35:32.759Z,11.9
2023-04-01T09:36:56.159Z,12
2023-04-01T09:38:19.565Z,12
2023-04-01T09:39:42.983Z,11.9
2023-04-01T09:41:06.388Z,12
2023-04-01T09:42:29.804Z,12
2023-04-01T09:43:53.211Z,12
2023-04-01T09:45:16.611Z,12
2023-04-01T09:46:40.020Z,11.9
2023-04-01T09:48:03.429Z,12
2023-04-01T09:49:25.869Z,11.9
2023-04-01T09:50:49.273Z,11.9
2023-04-01T09:52:12.679Z,11.9
2023-04-01T09:53:36.077Z,11.9
2023-04-01T09:54:59.486Z,11.9
2023-04-01T09:56:22.907Z,12
2023-04-01T09:57:46.321Z,12
2023-04-01T09:59:09.726Z,12.1
2023-04-01T10:00:33.127Z,12.1
2023-04-01T10:01:56.527Z,12.1
2023-04-01T10:03:19.956Z,12.2
2023-04-01T10:04:43.357Z,12.1
2023-04-01T10:06:06.768Z,12.1
2023-04-01T10:07:29.183Z,12.1
2023-04-01T10:08:52.596Z,12.1
2023-04-01T10:10:16.002Z,12.1
2023-04-01T10:11:39.407Z,12.1
2023-04-01T10:13:02.833Z,12.1
2023-04-01T10:14:26.233Z,12
2023-04-01T10:15:49.633Z,12
2023-04-01T10:17:13.050Z,12
2023-04-01T10:18:36.467Z,12
2023-04-01T10:19:59.872Z,12
2023-04-01T10:21:23.290Z,12
2023-04-01T10:22:46.702Z,12
2023-04-01T10:24:10.091Z,12.1
2023-04-01T10:25:32.518Z,11.9
2023-04-01T10:26:55.939Z,11.8
2023-04-01T10:28:19.342Z,11.7
2023-04-01T10:29:42.749Z,11.6
2023-04-01T10:31:06.165Z,11.6
2023-04-01T10:32:29.577Z,11.6
2023-04-01T10:33:52.986Z,11.5
2023-04-01T10:35:16.397Z,11.5
2023-04-01T10:36:39.801Z,11.4
2023-04-01T10:38:03.226Z,11.5
2023-04-01T10:39:26.630Z,11.5
2023-04-01T10:40:50.040Z,11.5
2023-04-01T10:42:13.447Z,11.4
2023-04-01T10:43:35.875Z,11.5
2023-04-01T10:44:59.283Z,11.5
2023-04-01T10:46:22.693Z,11.4
2023-04-01T10:47:46.108Z,11.5
2023-04-01T10:49:09.517Z,11.4
2023-04-01T10:50:32.926Z,11.4
2023-04-01T10:51:56.333Z,11.5
2023-04-01T10:53:19.733Z,11.5
2023-04-01T10:54:43.148Z,11.5
2023-04-01T10:56:06.549Z,11.4
2023-04-01T10:57:29.963Z,11.5
2023-04-01T10:58:53.358Z,11.6
2023-04-01T11:00:16.764Z,11.6
2023-04-01T11:01:39.213Z,11.6
2023-04-01T11:03:02.611Z,11.7
2023-04-01T11:04:26.016Z,11.7
2023-04-01T11:05:49.434Z,11.9
2023-04-01T11:07:12.835Z,11.9
2023-04-01T11:08:36.263Z,12
2023-04-01T11:09:59.672Z,12
2023-04-01T11:11:23.068Z,12.1
2023-04-01T11:12:46.477Z,12.1
2023-04-01T11:14:09.891Z,12.2
2023-04-01T11:15:33.300Z,12.2
2023-04-01T11:16:56.702Z,12.3
2023-04-01T11:18:20.111Z,12.5
2023-04-01T11:19:42.552Z,12.5
2023-04-01T11:21:05.957Z,12.5
2023-04-01T11:22:29.347Z,12.5
2023-04-01T11:23:52.766Z,12.6
2023-04-01T11:25:16.175Z,12.7
2023-04-01T11:26:39.591Z,12.7
2023-04-01T11:28:02.993Z,12.8
2023-04-01T11:29:26.402Z,12.9
2023-04-01T11:30:49.804Z,12.8
2023-04-01T11:32:13.218Z,12.9
2023-04-01T11:33:36.622Z,12.9
2023-04-01T11:35:00.038Z,12.9
2023-04-01T11:36:23.443Z,12.8
2023-04-01T11:37:45.865Z,12.8
2023-04-01T11:39:09.286Z,12.8
2023-04-01T11:40:32.701Z,12.7
2023-04-01T11:41:56.114Z,12.8
2023-04-01T11:43:19.502Z,12.7
2023-04-01T11:44:42.928Z,12.8
2023-04-01T11:46:06.328Z,12.7
2023-04-01T11:47:29.726Z,12.7
2023-04-01T11:48:53.143Z,12.7
2023-04-01T11:50:16.556Z,12.6
2023-04-01T11:51:39.957Z,12.6
2023-04-01T11:53:03.366Z,12.7
2023-04-01T11:54:26.771Z,12.6
2023-04-01T11:55:49.190Z,12.6
2023-04-01T11:57:12.596Z,12.6
2023-04-01T11:58:36.012Z,12.5
2023-04-01T11:59:59.417Z,12.6
2023-04-01T12:01:22.822Z,12.7
2023-04-01T12:02:46.237Z,12.6
2023-04-01T12:04:09.636Z,12.7
2023-04-01T12:05:33.040Z,12.7
2023-04-01T12:06:56.460Z,12.7
2023-04-01T12:08:19.877Z,12.6
2023-04-01T12:09:43.267Z,12.5
2023-04-01T12:11:06.669Z,12.5
2023-04-01T12:12:30.079Z,12.4
2023-04-01T12:13:52.500Z,12.3
2023-04-01T12:15:15.924Z,12.2
2023-04-01T12:16:39.324Z,12.1
2023-04-01T12:18:02.746Z,12
2023-04-01T12:19:26.137Z,12
2023-04-01T12:20:49.558Z,11.8
2023-04-01T12:22:12.957Z,11.7
2023-04-01T12:23:36.360Z,11.7
2023-04-01T12:24:59.778Z,11.7
2023-04-01T12:26:23.189Z,11.6
2023-04-01T12:27:46.587Z,11.6
2023-04-01T12:29:10.014Z,11.6
2023-04-01T12:30:33.405Z,11.6
2023-04-01T12:31:55.830Z,11.6
2023-04-01T12:33:19.239Z,11.7
2023-04-01T12:34:42.654Z,11.6
2023-04-01T12:36:06.067Z,11.7
2023-04-01T12:37:29.472Z,11.6
2023-04-01T12:38:52.867Z,11.7
2023-04-01T12:40:16.287Z,11.7
2023-04-01T12:41:39.695Z,11.7
2023-04-01T12:43:03.094Z,11.8
2023-04-01T12:44:26.517Z,11.8
2023-04-01T12:45:49.909Z,11.9
2023-04-01T12:47:13.334Z,11.9
2023-04-01T12:48:36.730Z,12
2023-04-01T12:49:59.153Z,12
2023-04-01T12:51:22.569Z,12.2
2023-04-01T12:52:45.984Z,12.2
2023-04-01T12:54:09.382Z,12.4
2023-04-01T12:55:32.788Z,12.4
2023-04-01T12:56:56.206Z,12.5
2023-04-01T12:58:18.649Z,12.7
2023-04-01T13:01:05.451Z,12.9
2023-04-01T13:02:28.875Z,13.1
2023-04-01T13:03:52.288Z,13.2
2023-04-01T13:05:15.694Z,13.2
2023-04-01T13:06:39.094Z,13.4
2023-04-01T13:08:02.515Z,13.5
2023-04-01T13:09:25.924Z,13.6
2023-04-01T13:10:49.319Z,13.8
2023-04-01T13:12:12.740Z,13.8
2023-04-01T13:13:36.146Z,13.9
2023-04-01T13:14:59.549Z,13.8
2023-04-01T13:16:21.981Z,13.8
2023-04-01T13:17:45.385Z,13.7
2023-04-01T13:19:08.798Z,13.7
2023-04-01T13:20:32.196Z,13.7
2023-04-01T13:21:55.623Z,13.7
2023-04-01T13:23:19.027Z,13.7
2023-04-01T13:24:42.429Z,13.7
2023-04-01T13:26:05.829Z,13.5
2023-04-01T13:27:29.243Z,13.6
2023-04-01T13:28:52.654Z,13.5
2023-04-01T13:30:16.061Z,13.5
2023-04-01T13:31:39.479Z,13.6
2023-04-01T13:33:02.874Z,13.6
2023-04-01T13:34:25.300Z,13.6
2023-04-01T13:35:48.706Z,13.6
2023-04-01T13:37:12.125Z,13.5
2023-04-01T13:38:35.539Z,13.4
2023-04-01T13:39:58.946Z,13.4
2023-04-01T13:41:22.362Z,13.3
2023-04-01T13:42:45.762Z,13.3
2023-04-01T13:44:09.185Z,13.2
2023-04-01T13:45:32.590Z,13.2
2023-04-01T13:46:55.987Z,13.3
2023-04-01T13:48:19.394Z,13.2
2023-04-01T13:49:42.814Z,13.2
2023-04-01T13:51:06.210Z,13.1
2023-04-01T13:52:28.642Z,13.1
2023-04-01T13:53:52.048Z,13.1
2023-04-01T13:55:15.472Z,13.1
2023-04-01T13:56:38.867Z,13
2023-04-01T13:58:02.288Z,13
2023-04-01T13:59:25.691Z,12.9
2023-04-01T14:00:49.111Z,12.9
2023-04-01T14:02:12.522Z,12.9
2023-04-01T14:03:35.930Z,12.8
2023-04-01T14:04:59.335Z,12.8
2023-04-01T14:06:22.754Z,12.8
2023-04-01T14:07:46.170Z,12.8
2023-04-01T14:09:09.566Z,12.7
2023-04-01T14:10:31.986Z,12.7
2023-04-01T14:11:55.402Z,12.8
2023-04-01T14:13:18.805Z,12.8
2023-04-01T14:14:42.210Z,12.7
2023-04-01T14:16:05.631Z,12.7
2023-04-01T14:17:29.026Z,12.7
2023-04-01T14:18:52.435Z,12.7
2023-04-01T14:20:15.860Z,12.6
2023-04-01T14:21:39.271Z,12.6
2023-04-01T14:23:02.677Z,12.5
2023-04-01T14:24:26.074Z,12.5
2023-04-01T14:25:49.484Z,12.5
2023-04-01T14:27:12.894Z,12.5
2023-04-01T14:28:35.317Z,12.4
2023-04-01T14:29:58.734Z,12.4
2023-04-01T14:31:22.127Z,12.3
2023-04-01T14:32:45.551Z,12.2
2023-04-01T14:34:08.947Z,12.1
2023-04-01T14:35:32.362Z,12.2
2023-04-01T14:36:55.766Z,12.2
2023-04-01T14:38:19.178Z,12.2
2023-04-01T14:39:42.596Z,12.1
2023-04-01T14:41:06.002Z,12.1
2023-04-01T14:42:29.406Z,12.1
2023-04-01T14:43:52.819Z,12
2023-04-01T14:45:16.216Z,12
2023-04-01T14:46:38.654Z,12
2023-04-01T14:48:02.046Z,12
2023-04-01T14:49:25.467Z,12
2023-04-01T14:50:48.870Z,12.1
2023-04-01T14:52:12.285Z,12
2023-04-01T14:53:35.700Z,12
2023-04-01T14:54:59.105Z,12
2023-04-01T14:56:22.507Z,12
2023-04-01T14:57:45.932Z,12
2023-04-01T14:59:09.332Z,11.9
2023-04-01T15:00:32.744Z,11.9
2023-04-01T15:01:56.154Z,11.9
2023-04-01T15:03:19.561Z,11.9
2023-04-01T15:04:41.994Z,11.8
2023-04-01T15:06:05.400Z,11.8
2023-04-01T15:07:28.808Z,11.8
2023-04-01T15:08:52.217Z,11.8
2023-04-01T15:10:15.618Z,11.9
2023-04-01T15:11:39.029Z,11.8
2023-04-01T15:13:02.438Z,11.6
2023-04-01T15:14:25.848Z,11.6
2023-04-01T15:15:49.252Z,11.6
2023-04-01T15:17:12.672Z,11.6
2023-04-01T15:18:36.082Z,11.6
2023-04-01T15:19:59.498Z,11.5
2023-04-01T15:21:22.888Z,11.5
2023-04-01T15:22:45.311Z,11.5
2023-04-01T15:24:08.727Z,11.4
2023-04-01T15:25:32.140Z,11.4
2023-04-01T15:26:55.549Z,11.3
2023-04-01T15:28:18.952Z,11.3
2023-04-01T15:29:42.372Z,11.3
2023-04-01T15:31:05.779Z,11.2
2023-04-01T15:32:29.179Z,11.1
2023-04-01T15:33:52.595Z,11.2
2023-04-01T15:35:16.007Z,11.1
2023-04-01T15:36:39.404Z,11
2023-04-01T15:38:02.811Z,11
2023-04-01T15:39:26.224Z,11
2023-04-01T15:40:48.634Z,10.9
2023-04-01T15:42:12.046Z,11
2023-04-01T15:43:35.465Z,10.9
2023-04-01T15:44:58.869Z,11
2023-04-01T15:46:22.280Z,10.9
2023-04-01T15:47:45.698Z,10.8
2023-04-01T15:49:09.106Z,11
2023-04-01T15:50:32.513Z,10.9
2023-04-01T15:51:55.911Z,10.8
2023-04-01T15:53:19.333Z,10.9
2023-04-01T15:54:42.737Z,10.8
2023-04-01T15:56:06.138Z,10.9
2023-04-01T15:57:29.551Z,10.9
2023-04-01T16:12:51.813Z,10.7
2023-04-01T16:28:15.080Z,10.5
2023-04-01T16:43:38.342Z,10
2023-04-01T16:59:01.599Z,10.1
2023-04-01T17:14:24.856Z,9.9
2023-04-01T17:15:48.271Z,9.8
2023-04-01T17:17:11.688Z,9.7
2023-04-01T17:18:35.095Z,9.8
2023-04-01T17:19:58.498Z,9.8
2023-04-01T17:21:21.915Z,9.8
2023-04-01T17:22:45.316Z,9.7
2023-04-01T17:24:08.731Z,9.7
2023-04-01T17:25:32.122Z,9.7
2023-04-01T17:26:54.554Z,9.6
2023-04-01T17:28:17.963Z,9.6
2023-04-01T17:29:41.372Z,9.7
2023-04-01T17:31:04.788Z,9.6
2023-04-01T17:32:28.189Z,9.6
2023-04-01T17:33:51.589Z,9.6
2023-04-01T17:35:14.993Z,9.6
2023-04-01T17:36:38.404Z,9.6
2023-04-01T17:38:01.822Z,9.5
2023-04-01T17:39:25.210Z,9.7
2023-04-01T17:40:48.616Z,9.7
2023-04-01T17:42:12.035Z,9.6
2023-04-01T17:43:35.436Z,9.6
2023-04-01T17:44:57.862Z,9.6
2023-04-01T17:46:21.274Z,9.6
2023-04-01T17:47:44.679Z,9.6
2023-04-01T17:49:08.080Z,9.5
2023-04-01T17:50:31.494Z,9.5
2023-04-01T17:51:54.904Z,9.5
2023-04-01T17:53:18.298Z,9.4
2023-04-01T17:54:41.718Z,9.5
2023-04-01T17:56:05.128Z,9.5
2023-04-01T17:57:28.538Z,9.6
2023-04-01T17:58:51.931Z,9.5
2023-04-01T18:00:15.340Z,9.5
2023-04-01T18:01:38.758Z,9.3
2023-04-01T18:03:01.224Z,9.4
2023-04-01T18:04:24.662Z,9.5
2023-04-01T18:05:48.120Z,9.5
2023-04-01T18:07:11.558Z,9.4
2023-04-01T18:08:35.022Z,9.4
2023-04-01T18:09:58.466Z,9.4
2023-04-01T18:11:21.928Z,9.4
2023-04-01T18:12:45.369Z,9.4
2023-04-01T18:14:08.824Z,9.4
2023-04-01T18:15:32.274Z,9.4
2023-04-01T18:16:55.730Z,9.3
2023-04-01T18:18:19.181Z,9.3
2023-04-01T18:19:42.618Z,9.3
2023-04-01T18:21:05.080Z,9.2
2023-04-01T18:22:28.534Z,9.4
2023-04-01T18:23:51.981Z,9.2
2023-04-01T18:25:15.440Z,9.2
2023-04-01T18:26:38.895Z,9.2
2023-04-01T18:28:02.367Z,9.2
2023-04-01T18:29:25.806Z,9.2
2023-04-01T18:30:49.253Z,9.2
2023-04-01T18:32:12.704Z,9.3
2023-04-01T18:33:36.168Z,9.3
2023-04-01T18:34:59.617Z,9.3
2023-04-01T18:36:23.057Z,9.4
2023-04-01T18:37:46.519Z,9.3
2023-04-01T18:39:08.979Z,9.3
2023-04-01T18:40:32.430Z,9.3
2023-04-01T18:41:55.884Z,9.3
2023-04-01T18:43:19.319Z,9.2
2023-04-01T18:44:42.777Z,9.3
2023-04-01T18:46:06.229Z,9.3
2023-04-01T18:47:28.704Z,9.3
2023-04-01T18:48:52.138Z,9.2
2023-04-01T18:50:15.597Z,9.2
2023-04-01T18:51:39.051Z,9.2
2023-04-01T18:53:02.503Z,9.2
2023-04-01T18:54:25.940Z,9.2
2023-04-01T18:55:49.396Z,9.1
2023-04-01T18:57:12.844Z,9.3
2023-04-01T18:58:36.300Z,9.3
2023-04-01T18:59:59.747Z,9.2
2023-04-01T19:01:23.186Z,9.1
2023-04-01T19:02:46.645Z,9.2
2023-04-01T19:04:10.095Z,9.3
2023-04-01T19:05:32.563Z,9.2
2023-04-01T19:06:56.005Z,9.1
2023-04-01T19:08:19.458Z,9.1
2023-04-01T19:09:42.901Z,9.2
2023-04-01T19:11:06.347Z,9.1
2023-04-01T19:12:29.797Z,9.1
2023-04-01T19:13:53.249Z,9.1
2023-04-01T19:15:16.693Z,9.1
2023-04-01T19:16:40.145Z,9.1
2023-04-01T19:18:03.603Z,9.1
2023-04-01T19:19:27.042Z,9.1
2023-04-01T19:20:50.503Z,9.1
2023-04-01T19:22:13.953Z,9.1
2023-04-01T19:23:36.432Z,9.1
2023-04-01T19:24:59.863Z,9.1
2023-04-01T19:26:23.328Z,9.1
2023-04-01T19:27:46.777Z,9.1
2023-04-01T19:29:10.223Z,9.1
2023-04-01T19:30:33.670Z,9.1
2023-04-01T19:31:57.121Z,9
2023-04-01T19:33:20.580Z,9
2023-04-01T19:34:44.025Z,9.1
2023-04-01T19:36:07.474Z,9.1
2023-04-01T19:37:30.917Z,9
2023-04-01T19:38:54.361Z,9
2023-04-01T19:40:17.812Z,9
2023-04-01T19:41:40.276Z,9
2023-04-01T19:43:03.737Z,9
2023-04-01T19:44:27.187Z,9
2023-04-01T19:45:50.621Z,9
2023-04-01T19:47:14.090Z,9.2
2023-04-01T19:48:37.528Z,9.1
2023-04-01T19:50:00.977Z,9.1
2023-04-01T19:51:24.428Z,9.1
2023-04-01T19:52:47.873Z,9.2
2023-04-01T19:54:11.323Z,9.2
2023-04-01T20:09:34.616Z,9.3
2023-04-01T20:24:57.911Z,9
2023-04-01T20:40:21.208Z,8.7
2023-04-01T20:55:43.532Z,8.3
2023-04-01T21:11:06.829Z,8.1
2023-04-01T21:26:30.138Z,7.9
2023-04-01T21:41:53.434Z,7.7
2023-04-01T21:57:16.738Z,7.5
2023-04-01T22:12:40.034Z,6.9
2023-04-01T22:28:03.338Z,6.6
2023-04-01T22:43:26.635Z,6.4
2023-04-01T22:58:49.946Z,6.2
2023-04-01T23:14:13.253Z,6.1
2023-04-01T23:29:36.543Z,5.7
2023-04-01T23:44:59.859Z,5.7
